Vada, Kentucky
Current Conditions -  °F | °C
As of 12:53 PM on Sunday 25 Jan 2015 (Local Time) from KJKL Reporting Station
Clear Clear  
Wind Chill: 46°   Ceiling: Unl
Heat Index: 46°   Visibility: 10mi
Dew Point: 33°   Wind: 3mph
Humidity: 61%   Direction: NA
Pressure: 29.72"   Gusts: NA
Location:  37.5908°N, 83.7186°W
Report Text: KJKL 251753Z AUTO VRB03KT 10SM CLR 08/01 A2972 RMK AO2 SLP069 T00780006 10078 20011 58023
Loading
Personal Weather Stations






























Interactive Weather Map New forecast layout! Learn more

10-Day Weather Forecast

Advertisements
Track Severe Weather on mobile